sensor_id;sensor_type;location;lat;lon;timestamp;temperature;humidity
32977;DHT22;47687;50.842;4.450;2022-09-12T00:01:03;15.10;99.90
32977;DHT22;47687;50.842;4.450;2022-09-12T00:03:28;15.00;99.90
32977;DHT22;47687;50.842;4.450;2022-09-12T00:05:54;15.00;99.90
32977;DHT22;47687;50.842;4.450;2022-09-12T00:08:19;15.00;99.90
32977;DHT22;47687;50.842;4.450;2022-09-12T00:10:45;14.90;99.90
32977;DHT22;47687;50.842;4.450;2022-09-12T00:13:11;15.00;99.90
32977;DHT22;47687;50.842;4.450;2022-09-12T00:15:38;14.90;99.90
32977;DHT22;47687;50.842;4.450;2022-09-12T00:18:03;14.90;99.90
32977;DHT22;47687;50.842;4.450;2022-09-12T00:20:29;14.90;99.90
32977;DHT22;47687;50.842;4.450;2022-09-12T00:22:55;14.90;99.90
32977;DHT22;47687;50.842;4.450;2022-09-12T00:25:20;14.80;99.90
32977;DHT22;47687;50.842;4.450;2022-09-12T00:27:46;14.80;99.90
32977;DHT22;47687;50.842;4.450;2022-09-12T00:30:12;14.80;99.90
32977;DHT22;47687;50.842;4.450;2022-09-12T00:32:37;14.80;99.90
32977;DHT22;47687;50.842;4.450;2022-09-12T00:35:03;14.80;99.90
32977;DHT22;47687;50.842;4.450;2022-09-12T00:37:29;14.80;99.90
32977;DHT22;47687;50.842;4.450;2022-09-12T00:39:56;14.70;99.90
32977;DHT22;47687;50.842;4.450;2022-09-12T00:42:21;14.70;99.90
32977;DHT22;47687;50.842;4.450;2022-09-12T00:44:50;14.80;99.90
32977;DHT22;47687;50.842;4.450;2022-09-12T00:47:42;14.70;99.90
32977;DHT22;47687;50.842;4.450;2022-09-12T00:50:12;14.70;99.90
32977;DHT22;47687;50.842;4.450;2022-09-12T00:55:40;14.60;99.90
32977;DHT22;47687;50.842;4.450;2022-09-12T00:58:16;14.60;99.90
32977;DHT22;47687;50.842;4.450;2022-09-12T01:00:43;14.60;99.90
32977;DHT22;47687;50.842;4.450;2022-09-12T01:03:11;14.60;99.90
32977;DHT22;47687;50.842;4.450;2022-09-12T01:05:46;14.50;99.90
32977;DHT22;47687;50.842;4.450;2022-09-12T01:08:16;14.50;99.90
32977;DHT22;47687;50.842;4.450;2022-09-12T01:10:42;14.50;99.90
32977;DHT22;47687;50.842;4.450;2022-09-12T01:13:08;14.60;99.90
32977;DHT22;47687;50.842;4.450;2022-09-12T01:15:38;14.50;99.90
32977;DHT22;47687;50.842;4.450;2022-09-12T01:20:43;14.50;99.90
32977;DHT22;47687;50.842;4.450;2022-09-12T01:23:35;14.50;99.90
32977;DHT22;47687;50.842;4.450;2022-09-12T01:32:09;14.40;99.90
32977;DHT22;47687;50.842;4.450;2022-09-12T01:34:48;14.40;99.90
32977;DHT22;47687;50.842;4.450;2022-09-12T01:37:41;14.40;99.90
32977;DHT22;47687;50.842;4.450;2022-09-12T01:48:44;14.40;99.90
32977;DHT22;47687;50.842;4.450;2022-09-12T01:53:59;14.40;99.90
32977;DHT22;47687;50.842;4.450;2022-09-12T01:56:30;14.30;99.90
32977;DHT22;47687;50.842;4.450;2022-09-12T01:59:00;14.40;99.90
32977;DHT22;47687;50.842;4.450;2022-09-12T02:01:31;14.30;99.90
32977;DHT22;47687;50.842;4.450;2022-09-12T02:09:24;14.30;99.90
32977;DHT22;47687;50.842;4.450;2022-09-12T02:11:56;14.30;99.90
32977;DHT22;47687;50.842;4.450;2022-09-12T02:14:25;14.30;99.90
32977;DHT22;47687;50.842;4.450;2022-09-12T02:17:07;14.30;99.90
32977;DHT22;47687;50.842;4.450;2022-09-12T02:19:42;14.30;99.90
32977;DHT22;47687;50.842;4.450;2022-09-12T02:22:12;14.30;99.90
32977;DHT22;47687;50.842;4.450;2022-09-12T02:24:42;14.20;99.90
32977;DHT22;47687;50.842;4.450;2022-09-12T02:27:12;14.20;99.90
32977;DHT22;47687;50.842;4.450;2022-09-12T02:29:39;14.30;99.90
32977;DHT22;47687;50.842;4.450;2022-09-12T02:34:44;14.20;99.90
32977;DHT22;47687;50.842;4.450;2022-09-12T02:40:04;14.20;99.90
32977;DHT22;47687;50.842;4.450;2022-09-12T02:42:33;14.10;99.90
32977;DHT22;47687;50.842;4.450;2022-09-12T02:44:59;14.10;99.90
32977;DHT22;47687;50.842;4.450;2022-09-12T02:47:36;14.10;99.90
32977;DHT22;47687;50.842;4.450;2022-09-12T02:50:04;14.10;99.90
32977;DHT22;47687;50.842;4.450;2022-09-12T02:52:30;14.10;99.90
32977;DHT22;47687;50.842;4.450;2022-09-12T02:54:56;14.20;99.90
32977;DHT22;47687;50.842;4.450;2022-09-12T02:57:22;14.00;99.90
32977;DHT22;47687;50.842;4.450;2022-09-12T02:59:54;14.10;99.90
32977;DHT22;47687;50.842;4.450;2022-09-12T03:05:18;13.90;99.90
32977;DHT22;47687;50.842;4.450;2022-09-12T03:10:27;13.90;99.90
32977;DHT22;47687;50.842;4.450;2022-09-12T03:13:22;13.90;99.90
32977;DHT22;47687;50.842;4.450;2022-09-12T03:16:21;13.90;99.90
32977;DHT22;47687;50.842;4.450;2022-09-12T03:18:57;13.90;99.90
32977;DHT22;47687;50.842;4.450;2022-09-12T03:21:27;13.80;99.90
32977;DHT22;47687;50.842;4.450;2022-09-12T03:24:10;13.80;99.90
32977;DHT22;47687;50.842;4.450;2022-09-12T03:29:09;13.80;99.90
32977;DHT22;47687;50.842;4.450;2022-09-12T03:31:36;13.70;99.90
32977;DHT22;47687;50.842;4.450;2022-09-12T03:34:01;13.70;99.90
32977;DHT22;47687;50.842;4.450;2022-09-12T03:36:28;13.70;99.90
32977;DHT22;47687;50.842;4.450;2022-09-12T03:38:54;13.80;99.90
32977;DHT22;47687;50.842;4.450;2022-09-12T03:41:20;13.70;99.90
32977;DHT22;47687;50.842;4.450;2022-09-12T03:43:47;13.70;99.90
32977;DHT22;47687;50.842;4.450;2022-09-12T03:46:13;13.70;99.90
32977;DHT22;47687;50.842;4.450;2022-09-12T03:48:39;13.70;99.90
32977;DHT22;47687;50.842;4.450;2022-09-12T03:51:07;13.70;99.90
32977;DHT22;47687;50.842;4.450;2022-09-12T03:53:33;13.70;99.90
32977;DHT22;47687;50.842;4.450;2022-09-12T03:55:59;13.70;99.90
32977;DHT22;47687;50.842;4.450;2022-09-12T03:58:37;13.70;99.90
32977;DHT22;47687;50.842;4.450;2022-09-12T04:01:10;13.70;99.90
32977;DHT22;47687;50.842;4.450;2022-09-12T04:03:39;13.60;99.90
32977;DHT22;47687;50.842;4.450;2022-09-12T04:06:07;13.60;99.90
32977;DHT22;47687;50.842;4.450;2022-09-12T04:08:36;13.60;99.90
32977;DHT22;47687;50.842;4.450;2022-09-12T04:11:11;13.70;99.90
32977;DHT22;47687;50.842;4.450;2022-09-12T04:13:38;13.60;99.90
32977;DHT22;47687;50.842;4.450;2022-09-12T04:16:04;13.60;99.90
32977;DHT22;47687;50.842;4.450;2022-09-12T04:18:30;13.60;99.90
32977;DHT22;47687;50.842;4.450;2022-09-12T04:20:56;13.60;99.90
32977;DHT22;47687;50.842;4.450;2022-09-12T04:23:22;13.60;99.90
32977;DHT22;47687;50.842;4.450;2022-09-12T04:25:56;13.60;99.90
32977;DHT22;47687;50.842;4.450;2022-09-12T04:28:22;13.60;99.90
32977;DHT22;47687;50.842;4.450;2022-09-12T04:30:49;13.60;99.90
32977;DHT22;47687;50.842;4.450;2022-09-12T04:33:16;13.60;99.90
32977;DHT22;47687;50.842;4.450;2022-09-12T04:35:41;13.60;99.90
32977;DHT22;47687;50.842;4.450;2022-09-12T04:38:07;13.60;99.90
32977;DHT22;47687;50.842;4.450;2022-09-12T04:40:33;13.50;99.90
32977;DHT22;47687;50.842;4.450;2022-09-12T04:42:59;13.50;99.90
32977;DHT22;47687;50.842;4.450;2022-09-12T04:45:24;13.50;99.90
32977;DHT22;47687;50.842;4.450;2022-09-12T04:47:50;13.40;99.90
32977;DHT22;47687;50.842;4.450;2022-09-12T04:50:16;13.50;99.90
32977;DHT22;47687;50.842;4.450;2022-09-12T04:52:43;13.50;99.90
32977;DHT22;47687;50.842;4.450;2022-09-12T04:55:08;13.50;99.90
32977;DHT22;47687;50.842;4.450;2022-09-12T04:57:34;13.40;99.90
32977;DHT22;47687;50.842;4.450;2022-09-12T05:00:01;13.50;99.90
32977;DHT22;47687;50.842;4.450;2022-09-12T05:02:29;13.40;99.90
32977;DHT22;47687;50.842;4.450;2022-09-12T05:04:55;13.50;99.90
32977;DHT22;47687;50.842;4.450;2022-09-12T05:07:22;13.40;99.90
32977;DHT22;47687;50.842;4.450;2022-09-12T05:09:47;13.40;99.90
32977;DHT22;47687;50.842;4.450;2022-09-12T05:12:13;13.40;99.90
32977;DHT22;47687;50.842;4.450;2022-09-12T05:14:39;13.40;99.90
32977;DHT22;47687;50.842;4.450;2022-09-12T05:17:04;13.40;99.90
32977;DHT22;47687;50.842;4.450;2022-09-12T05:19:31;13.40;99.90
32977;DHT22;47687;50.842;4.450;2022-09-12T05:21:57;13.50;99.90
32977;DHT22;47687;50.842;4.450;2022-09-12T05:24:23;13.40;99.90
32977;DHT22;47687;50.842;4.450;2022-09-12T05:26:49;13.40;99.90
32977;DHT22;47687;50.842;4.450;2022-09-12T05:29:15;13.40;99.90
32977;DHT22;47687;50.842;4.450;2022-09-12T05:31:40;13.40;99.90
32977;DHT22;47687;50.842;4.450;2022-09-12T05:34:06;13.40;99.90
32977;DHT22;47687;50.842;4.450;2022-09-12T05:36:33;13.40;99.90
32977;DHT22;47687;50.842;4.450;2022-09-12T05:39:00;13.50;99.90
32977;DHT22;47687;50.842;4.450;2022-09-12T05:41:28;13.50;99.90
32977;DHT22;47687;50.842;4.450;2022-09-12T05:44:05;13.50;99.90
32977;DHT22;47687;50.842;4.450;2022-09-12T05:46:37;13.50;99.90
32977;DHT22;47687;50.842;4.450;2022-09-12T05:49:05;13.50;99.90
32977;DHT22;47687;50.842;4.450;2022-09-12T05:51:33;13.60;99.90
32977;DHT22;47687;50.842;4.450;2022-09-12T05:54:01;13.50;99.90
32977;DHT22;47687;50.842;4.450;2022-09-12T05:56:32;13.60;99.90
32977;DHT22;47687;50.842;4.450;2022-09-12T05:59:01;13.70;99.90
32977;DHT22;47687;50.842;4.450;2022-09-12T06:01:28;13.70;99.90
32977;DHT22;47687;50.842;4.450;2022-09-12T06:03:56;13.70;99.90
32977;DHT22;47687;50.842;4.450;2022-09-12T06:06:25;13.80;99.90
32977;DHT22;47687;50.842;4.450;2022-09-12T06:08:54;13.80;99.90
32977;DHT22;47687;50.842;4.450;2022-09-12T06:11:23;13.80;99.90
32977;DHT22;47687;50.842;4.450;2022-09-12T06:13:50;13.80;99.90
32977;DHT22;47687;50.842;4.450;2022-09-12T06:16:21;13.80;99.90
32977;DHT22;47687;50.842;4.450;2022-09-12T06:18:54;14.00;99.90
32977;DHT22;47687;50.842;4.450;2022-09-12T06:21:21;14.00;99.90
32977;DHT22;47687;50.842;4.450;2022-09-12T06:23:47;14.20;99.90
32977;DHT22;47687;50.842;4.450;2022-09-12T06:26:15;14.20;99.90
32977;DHT22;47687;50.842;4.450;2022-09-12T06:28:42;14.30;99.90
32977;DHT22;47687;50.842;4.450;2022-09-12T06:31:13;14.40;99.90
32977;DHT22;47687;50.842;4.450;2022-09-12T06:33:43;14.50;99.90
32977;DHT22;47687;50.842;4.450;2022-09-12T06:36:17;14.60;99.90
32977;DHT22;47687;50.842;4.450;2022-09-12T06:38:43;14.60;99.90
32977;DHT22;47687;50.842;4.450;2022-09-12T06:41:13;14.70;99.90
32977;DHT22;47687;50.842;4.450;2022-09-12T06:43:40;14.80;99.90
32977;DHT22;47687;50.842;4.450;2022-09-12T06:46:07;14.90;99.90
32977;DHT22;47687;50.842;4.450;2022-09-12T06:48:32;15.00;99.90
32977;DHT22;47687;50.842;4.450;2022-09-12T06:51:18;15.10;99.90
32977;DHT22;47687;50.842;4.450;2022-09-12T06:53:48;15.30;99.90
32977;DHT22;47687;50.842;4.450;2022-09-12T06:56:16;15.30;99.90
32977;DHT22;47687;50.842;4.450;2022-09-12T06:58:43;15.40;99.90
32977;DHT22;47687;50.842;4.450;2022-09-12T07:01:23;15.50;99.90
32977;DHT22;47687;50.842;4.450;2022-09-12T07:03:54;15.60;99.90
32977;DHT22;47687;50.842;4.450;2022-09-12T07:06:22;15.70;99.90
32977;DHT22;47687;50.842;4.450;2022-09-12T07:08:49;15.80;99.90
32977;DHT22;47687;50.842;4.450;2022-09-12T07:11:21;16.00;99.90
32977;DHT22;47687;50.842;4.450;2022-09-12T07:13:52;16.00;99.90
32977;DHT22;47687;50.842;4.450;2022-09-12T07:16:18;16.20;99.90
32977;DHT22;47687;50.842;4.450;2022-09-12T07:18:48;16.20;99.90
32977;DHT22;47687;50.842;4.450;2022-09-12T07:21:14;16.30;99.90
32977;DHT22;47687;50.842;4.450;2022-09-12T07:23:40;16.40;99.90
32977;DHT22;47687;50.842;4.450;2022-09-12T07:26:08;16.50;99.90
32977;DHT22;47687;50.842;4.450;2022-09-12T07:28:35;16.70;99.90
32977;DHT22;47687;50.842;4.450;2022-09-12T07:31:15;16.70;99.90
32977;DHT22;47687;50.842;4.450;2022-09-12T07:33:41;16.90;99.90
32977;DHT22;47687;50.842;4.450;2022-09-12T07:36:14;17.00;99.90
32977;DHT22;47687;50.842;4.450;2022-09-12T07:38:41;17.20;99.90
32977;DHT22;47687;50.842;4.450;2022-09-12T07:41:18;17.20;99.90
32977;DHT22;47687;50.842;4.450;2022-09-12T07:43:44;17.40;99.90
32977;DHT22;47687;50.842;4.450;2022-09-12T07:46:10;17.50;99.90
32977;DHT22;47687;50.842;4.450;2022-09-12T07:48:36;17.50;99.90
32977;DHT22;47687;50.842;4.450;2022-09-12T07:51:08;17.50;99.90
32977;DHT22;47687;50.842;4.450;2022-09-12T07:53:40;17.70;99.90
32977;DHT22;47687;50.842;4.450;2022-09-12T07:56:07;17.90;99.90
32977;DHT22;47687;50.842;4.450;2022-09-12T07:58:35;18.00;99.90
32977;DHT22;47687;50.842;4.450;2022-09-12T08:01:06;18.20;99.90
32977;DHT22;47687;50.842;4.450;2022-09-12T08:03:34;18.30;99.90
32977;DHT22;47687;50.842;4.450;2022-09-12T08:08:28;18.60;99.90
32977;DHT22;47687;50.842;4.450;2022-09-12T08:10:58;18.60;99.90
32977;DHT22;47687;50.842;4.450;2022-09-12T08:13:28;18.70;99.90
32977;DHT22;47687;50.842;4.450;2022-09-12T08:15:59;18.80;99.90
32977;DHT22;47687;50.842;4.450;2022-09-12T08:18:29;18.60;99.90
32977;DHT22;47687;50.842;4.450;2022-09-12T08:21:03;18.70;99.90
32977;DHT22;47687;50.842;4.450;2022-09-12T08:23:29;18.80;99.90
32977;DHT22;47687;50.842;4.450;2022-09-12T08:26:00;18.70;99.90
32977;DHT22;47687;50.842;4.450;2022-09-12T08:28:28;18.70;99.90
32977;DHT22;47687;50.842;4.450;2022-09-12T08:30:58;18.80;99.90
32977;DHT22;47687;50.842;4.450;2022-09-12T08:33:24;19.00;99.90
32977;DHT22;47687;50.842;4.450;2022-09-12T08:35:51;18.80;99.90
32977;DHT22;47687;50.842;4.450;2022-09-12T08:38:17;19.00;99.90
32977;DHT22;47687;50.842;4.450;2022-09-12T08:40:52;19.20;99.90
32977;DHT22;47687;50.842;4.450;2022-09-12T08:43:40;19.20;99.90
32977;DHT22;47687;50.842;4.450;2022-09-12T08:46:23;19.30;99.90
32977;DHT22;47687;50.842;4.450;2022-09-12T08:48:51;19.50;99.90
32977;DHT22;47687;50.842;4.450;2022-09-12T08:51:19;19.60;99.90
32977;DHT22;47687;50.842;4.450;2022-09-12T08:53:46;19.50;99.90
32977;DHT22;47687;50.842;4.450;2022-09-12T08:56:14;19.60;99.90
32977;DHT22;47687;50.842;4.450;2022-09-12T08:58:42;19.60;99.90
32977;DHT22;47687;50.842;4.450;2022-09-12T09:01:27;19.70;99.90
32977;DHT22;47687;50.842;4.450;2022-09-12T09:12:31;20.10;99.90
32977;DHT22;47687;50.842;4.450;2022-09-12T09:18:02;20.10;99.90
32977;DHT22;47687;50.842;4.450;2022-09-12T09:28:21;20.20;99.90
32977;DHT22;47687;50.842;4.450;2022-09-12T09:30:48;20.30;99.90
32977;DHT22;47687;50.842;4.450;2022-09-12T09:33:21;20.40;99.90
32977;DHT22;47687;50.842;4.450;2022-09-12T09:36:02;20.40;99.90
32977;DHT22;47687;50.842;4.450;2022-09-12T09:43:50;20.60;99.90
32977;DHT22;47687;50.842;4.450;2022-09-12T09:46:15;20.60;99.90
32977;DHT22;47687;50.842;4.450;2022-09-12T09:48:44;20.60;99.90
32977;DHT22;47687;50.842;4.450;2022-09-12T09:51:13;20.70;99.90
32977;DHT22;47687;50.842;4.450;2022-09-12T09:53:47;20.80;99.90
32977;DHT22;47687;50.842;4.450;2022-09-12T09:56:31;20.90;99.90
32977;DHT22;47687;50.842;4.450;2022-09-12T09:59:17;20.90;99.90
32977;DHT22;47687;50.842;4.450;2022-09-12T10:02:01;20.90;99.90
32977;DHT22;47687;50.842;4.450;2022-09-12T10:04:30;21.00;99.90
32977;DHT22;47687;50.842;4.450;2022-09-12T10:06:59;21.10;99.90
32977;DHT22;47687;50.842;4.450;2022-09-12T10:09:34;21.20;99.90
32977;DHT22;47687;50.842;4.450;2022-09-12T10:12:19;21.30;99.90
32977;DHT22;47687;50.842;4.450;2022-09-12T10:14:56;21.30;99.90
32977;DHT22;47687;50.842;4.450;2022-09-12T10:17:26;21.30;99.90
32977;DHT22;47687;50.842;4.450;2022-09-12T10:19:57;21.50;99.90
32977;DHT22;47687;50.842;4.450;2022-09-12T10:22:26;21.70;99.90
32977;DHT22;47687;50.842;4.450;2022-09-12T10:24:57;21.80;99.90
32977;DHT22;47687;50.842;4.450;2022-09-12T10:27:27;21.80;99.90
32977;DHT22;47687;50.842;4.450;2022-09-12T10:30:03;21.90;99.90
32977;DHT22;47687;50.842;4.450;2022-09-12T10:32:38;22.00;99.90
32977;DHT22;47687;50.842;4.450;2022-09-12T10:35:14;22.20;99.90
32977;DHT22;47687;50.842;4.450;2022-09-12T10:37:53;22.10;99.90
32977;DHT22;47687;50.842;4.450;2022-09-12T10:40:30;22.10;99.90
32977;DHT22;47687;50.842;4.450;2022-09-12T10:43:50;22.10;99.90
32977;DHT22;47687;50.842;4.450;2022-09-12T10:46:22;22.00;99.90
32977;DHT22;47687;50.842;4.450;2022-09-12T10:49:12;22.10;99.90
32977;DHT22;47687;50.842;4.450;2022-09-12T10:51:38;22.20;99.90
32977;DHT22;47687;50.842;4.450;2022-09-12T10:54:07;22.20;99.90
32977;DHT22;47687;50.842;4.450;2022-09-12T10:56:38;22.40;99.90
32977;DHT22;47687;50.842;4.450;2022-09-12T11:02:04;22.60;99.90
32977;DHT22;47687;50.842;4.450;2022-09-12T11:05:02;22.60;99.90
32977;DHT22;47687;50.842;4.450;2022-09-12T11:07:46;22.80;99.90
32977;DHT22;47687;50.842;4.450;2022-09-12T11:10:29;22.80;99.90
32977;DHT22;47687;50.842;4.450;2022-09-12T11:29:51;23.20;99.90
32977;DHT22;47687;50.842;4.450;2022-09-12T11:41:00;23.40;99.60
32977;DHT22;47687;50.842;4.450;2022-09-12T11:43:53;23.40;99.30
32977;DHT22;47687;50.842;4.450;2022-09-12T11:46:34;23.40;98.90
32977;DHT22;47687;50.842;4.450;2022-09-12T11:52:03;23.40;96.60
32977;DHT22;47687;50.842;4.450;2022-09-12T11:54:42;23.50;97.30
32977;DHT22;47687;50.842;4.450;2022-09-12T11:57:35;23.70;96.90
32977;DHT22;47687;50.842;4.450;2022-09-12T12:00:39;23.90;96.20
32977;DHT22;47687;50.842;4.450;2022-09-12T12:03:12;24.00;96.30
32977;DHT22;47687;50.842;4.450;2022-09-12T12:05:50;24.00;95.80
32977;DHT22;47687;50.842;4.450;2022-09-12T12:08:22;23.90;96.40
32977;DHT22;47687;50.842;4.450;2022-09-12T12:11:00;24.00;96.50
32977;DHT22;47687;50.842;4.450;2022-09-12T12:16:25;24.30;95.70
32977;DHT22;47687;50.842;4.450;2022-09-12T12:21:44;24.60;94.10
32977;DHT22;47687;50.842;4.450;2022-09-12T12:24:24;24.70;94.20
32977;DHT22;47687;50.842;4.450;2022-09-12T12:26:55;24.80;94.60
32977;DHT22;47687;50.842;4.450;2022-09-12T12:34:40;25.00;93.70
32977;DHT22;47687;50.842;4.450;2022-09-12T12:45:00;25.10;92.90
32977;DHT22;47687;50.842;4.450;2022-09-12T12:47:32;25.30;92.80
32977;DHT22;47687;50.842;4.450;2022-09-12T12:55:38;25.40;92.50
32977;DHT22;47687;50.842;4.450;2022-09-12T12:58:34;25.50;92.00
32977;DHT22;47687;50.842;4.450;2022-09-12T13:03:44;25.60;91.50
32977;DHT22;47687;50.842;4.450;2022-09-12T13:09:05;25.80;92.10
32977;DHT22;47687;50.842;4.450;2022-09-12T13:11:37;25.80;92.30
32977;DHT22;47687;50.842;4.450;2022-09-12T13:14:05;25.80;91.80
32977;DHT22;47687;50.842;4.450;2022-09-12T13:16:38;25.90;91.80
32977;DHT22;47687;50.842;4.450;2022-09-12T13:19:12;26.00;91.50
32977;DHT22;47687;50.842;4.450;2022-09-12T13:21:49;26.10;91.20
32977;DHT22;47687;50.842;4.450;2022-09-12T13:24:21;26.10;91.70
32977;DHT22;47687;50.842;4.450;2022-09-12T13:26:47;26.20;91.50
32977;DHT22;47687;50.842;4.450;2022-09-12T13:29:22;26.40;91.30
32977;DHT22;47687;50.842;4.450;2022-09-12T13:32:00;26.60;91.00
32977;DHT22;47687;50.842;4.450;2022-09-12T13:39:51;26.90;88.80
32977;DHT22;47687;50.842;4.450;2022-09-12T13:45:08;27.10;88.60
32977;DHT22;47687;50.842;4.450;2022-09-12T13:47:44;27.10;88.70
32977;DHT22;47687;50.842;4.450;2022-09-12T13:50:19;27.00;89.30
32977;DHT22;47687;50.842;4.450;2022-09-12T13:53:00;27.00;88.40
32977;DHT22;47687;50.842;4.450;2022-09-12T13:58:01;27.00;87.70
32977;DHT22;47687;50.842;4.450;2022-09-12T14:00:28;27.10;88.00
32977;DHT22;47687;50.842;4.450;2022-09-12T14:02:56;27.20;87.20
32977;DHT22;47687;50.842;4.450;2022-09-12T14:05:54;27.30;87.30
32977;DHT22;47687;50.842;4.450;2022-09-12T14:08:21;27.20;86.50
32977;DHT22;47687;50.842;4.450;2022-09-12T14:10:48;27.20;85.60
32977;DHT22;47687;50.842;4.450;2022-09-12T14:13:21;27.20;85.80
32977;DHT22;47687;50.842;4.450;2022-09-12T14:15:49;27.20;85.30
32977;DHT22;47687;50.842;4.450;2022-09-12T14:18:26;27.20;86.20
32977;DHT22;47687;50.842;4.450;2022-09-12T14:20:53;27.10;85.90
32977;DHT22;47687;50.842;4.450;2022-09-12T14:23:31;26.90;85.80
32977;DHT22;47687;50.842;4.450;2022-09-12T14:26:01;27.00;86.40
32977;DHT22;47687;50.842;4.450;2022-09-12T14:28:29;26.80;86.10
32977;DHT22;47687;50.842;4.450;2022-09-12T14:31:01;26.80;86.40
32977;DHT22;47687;50.842;4.450;2022-09-12T14:33:28;26.80;86.50
32977;DHT22;47687;50.842;4.450;2022-09-12T14:36:14;26.70;87.20
32977;DHT22;47687;50.842;4.450;2022-09-12T14:38:47;26.60;87.20
32977;DHT22;47687;50.842;4.450;2022-09-12T14:41:41;26.50;88.60
32977;DHT22;47687;50.842;4.450;2022-09-12T14:44:20;26.50;88.00
32977;DHT22;47687;50.842;4.450;2022-09-12T14:46:47;26.50;88.10
32977;DHT22;47687;50.842;4.450;2022-09-12T14:49:32;26.40;87.10
32977;DHT22;47687;50.842;4.450;2022-09-12T14:52:01;26.30;86.30
32977;DHT22;47687;50.842;4.450;2022-09-12T14:56:57;26.40;87.20
32977;DHT22;47687;50.842;4.450;2022-09-12T14:59:36;26.40;86.50
32977;DHT22;47687;50.842;4.450;2022-09-12T15:04:50;26.50;88.00
32977;DHT22;47687;50.842;4.450;2022-09-12T15:07:37;26.40;86.70
32977;DHT22;47687;50.842;4.450;2022-09-12T15:10:31;26.40;87.60
32977;DHT22;47687;50.842;4.450;2022-09-12T15:15:33;26.30;85.10
32977;DHT22;47687;50.842;4.450;2022-09-12T15:17:59;26.30;86.10
32977;DHT22;47687;50.842;4.450;2022-09-12T15:20:25;26.30;86.20
32977;DHT22;47687;50.842;4.450;2022-09-12T15:22:51;26.40;86.70
32977;DHT22;47687;50.842;4.450;2022-09-12T15:25:16;26.30;87.40
32977;DHT22;47687;50.842;4.450;2022-09-12T15:27:43;26.30;85.80
32977;DHT22;47687;50.842;4.450;2022-09-12T15:30:10;26.20;86.40
32977;DHT22;47687;50.842;4.450;2022-09-12T15:32:37;26.20;86.20
32977;DHT22;47687;50.842;4.450;2022-09-12T15:35:15;26.20;85.30
32977;DHT22;47687;50.842;4.450;2022-09-12T15:37:40;26.20;84.80
32977;DHT22;47687;50.842;4.450;2022-09-12T15:40:07;26.20;85.60
32977;DHT22;47687;50.842;4.450;2022-09-12T15:42:33;26.10;85.80
32977;DHT22;47687;50.842;4.450;2022-09-12T15:44:59;26.10;85.70
32977;DHT22;47687;50.842;4.450;2022-09-12T15:47:24;26.20;86.20
32977;DHT22;47687;50.842;4.450;2022-09-12T15:49:50;26.10;87.60
32977;DHT22;47687;50.842;4.450;2022-09-12T15:52:16;26.00;88.20
32977;DHT22;47687;50.842;4.450;2022-09-12T15:54:42;26.00;87.00
32977;DHT22;47687;50.842;4.450;2022-09-12T15:57:08;26.10;85.50
32977;DHT22;47687;50.842;4.450;2022-09-12T15:59:34;26.00;86.10
32977;DHT22;47687;50.842;4.450;2022-09-12T16:02:00;26.00;86.20
32977;DHT22;47687;50.842;4.450;2022-09-12T16:04:27;26.00;87.50
32977;DHT22;47687;50.842;4.450;2022-09-12T16:06:54;26.10;87.40
32977;DHT22;47687;50.842;4.450;2022-09-12T16:09:21;25.90;87.40
32977;DHT22;47687;50.842;4.450;2022-09-12T16:11:47;25.90;87.30
32977;DHT22;47687;50.842;4.450;2022-09-12T16:14:17;25.80;86.70
32977;DHT22;47687;50.842;4.450;2022-09-12T16:16:43;25.80;85.90
32977;DHT22;47687;50.842;4.450;2022-09-12T16:19:09;25.80;85.90
32977;DHT22;47687;50.842;4.450;2022-09-12T16:21:35;25.80;87.10
32977;DHT22;47687;50.842;4.450;2022-09-12T16:24:01;25.80;87.50
32977;DHT22;47687;50.842;4.450;2022-09-12T16:26:27;25.80;87.80
32977;DHT22;47687;50.842;4.450;2022-09-12T16:28:56;25.80;87.90
32977;DHT22;47687;50.842;4.450;2022-09-12T16:31:22;26.00;87.90
32977;DHT22;47687;50.842;4.450;2022-09-12T16:33:48;26.10;87.40
32977;DHT22;47687;50.842;4.450;2022-09-12T16:36:17;26.20;87.30
32977;DHT22;47687;50.842;4.450;2022-09-12T16:38:48;26.30;87.80
32977;DHT22;47687;50.842;4.450;2022-09-12T16:41:14;26.30;87.90
32977;DHT22;47687;50.842;4.450;2022-09-12T16:43:41;26.40;88.30
32977;DHT22;47687;50.842;4.450;2022-09-12T16:46:19;26.40;88.40
32977;DHT22;47687;50.842;4.450;2022-09-12T16:48:49;26.40;88.80
32977;DHT22;47687;50.842;4.450;2022-09-12T16:51:17;26.50;89.30
32977;DHT22;47687;50.842;4.450;2022-09-12T16:53:44;26.80;88.10
32977;DHT22;47687;50.842;4.450;2022-09-12T16:56:10;26.90;87.50
32977;DHT22;47687;50.842;4.450;2022-09-12T16:58:38;27.00;88.10
32977;DHT22;47687;50.842;4.450;2022-09-12T17:01:06;27.20;87.10
32977;DHT22;47687;50.842;4.450;2022-09-12T17:03:32;27.30;87.20
32977;DHT22;47687;50.842;4.450;2022-09-12T17:08:36;28.20;86.70
32977;DHT22;47687;50.842;4.450;2022-09-12T17:11:05;28.20;86.30
32977;DHT22;47687;50.842;4.450;2022-09-12T17:13:30;28.10;85.60
32977;DHT22;47687;50.842;4.450;2022-09-12T17:15:56;28.20;85.60
32977;DHT22;47687;50.842;4.450;2022-09-12T17:18:22;28.50;85.10
32977;DHT22;47687;50.842;4.450;2022-09-12T17:20:49;28.60;85.00
32977;DHT22;47687;50.842;4.450;2022-09-12T17:23:14;28.60;84.80
32977;DHT22;47687;50.842;4.450;2022-09-12T17:25:47;28.70;85.00
32977;DHT22;47687;50.842;4.450;2022-09-12T17:28:13;28.70;85.30
32977;DHT22;47687;50.842;4.450;2022-09-12T17:30:39;28.50;85.50
32977;DHT22;47687;50.842;4.450;2022-09-12T17:33:05;28.20;85.30
32977;DHT22;47687;50.842;4.450;2022-09-12T17:35:35;27.80;86.00
32977;DHT22;47687;50.842;4.450;2022-09-12T17:38:01;27.40;86.90
32977;DHT22;47687;50.842;4.450;2022-09-12T17:40:27;27.00;87.90
32977;DHT22;47687;50.842;4.450;2022-09-12T17:42:53;26.60;88.60
32977;DHT22;47687;50.842;4.450;2022-09-12T17:45:19;26.40;89.50
32977;DHT22;47687;50.842;4.450;2022-09-12T17:47:44;26.10;90.10
32977;DHT22;47687;50.842;4.450;2022-09-12T17:50:10;25.70;91.30
32977;DHT22;47687;50.842;4.450;2022-09-12T17:52:36;25.40;92.00
32977;DHT22;47687;50.842;4.450;2022-09-12T17:55:01;25.10;92.10
32977;DHT22;47687;50.842;4.450;2022-09-12T17:57:27;24.90;92.30
32977;DHT22;47687;50.842;4.450;2022-09-12T17:59:53;24.70;92.60
32977;DHT22;47687;50.842;4.450;2022-09-12T18:02:18;24.50;92.80
32977;DHT22;47687;50.842;4.450;2022-09-12T18:04:45;24.30;93.10
32977;DHT22;47687;50.842;4.450;2022-09-12T18:07:18;24.10;93.40
32977;DHT22;47687;50.842;4.450;2022-09-12T18:09:44;23.80;93.70
32977;DHT22;47687;50.842;4.450;2022-09-12T18:12:13;23.60;94.00
32977;DHT22;47687;50.842;4.450;2022-09-12T18:14:39;23.40;94.30
32977;DHT22;47687;50.842;4.450;2022-09-12T18:17:06;23.30;94.80
32977;DHT22;47687;50.842;4.450;2022-09-12T18:19:33;23.10;95.10
32977;DHT22;47687;50.842;4.450;2022-09-12T18:22:00;22.90;95.50